sensor_id;sensor_type;location;lat;lon;timestamp;pressure;altitude;pressure_sealevel;temperature;humidity
2681;BME280;1350;42.134;24.708;2023-05-23T00:01:02;99089.34;;;15.87;100.00
2681;BME280;1350;42.134;24.708;2023-05-23T00:03:31;99085.50;;;15.80;100.00
2681;BME280;1350;42.134;24.708;2023-05-23T00:05:57;99093.91;;;15.65;100.00
2681;BME280;1350;42.134;24.708;2023-05-23T00:08:24;99088.19;;;15.58;100.00
2681;BME280;1350;42.134;24.708;2023-05-23T00:10:52;99080.56;;;15.54;100.00
2681;BME280;1350;42.134;24.708;2023-05-23T00:13:19;99088.81;;;15.62;100.00
2681;BME280;1350;42.134;24.708;2023-05-23T00:15:46;99092.81;;;15.56;100.00
2681;BME280;1350;42.134;24.708;2023-05-23T00:18:13;99088.06;;;15.49;100.00
2681;BME280;1350;42.134;24.708;2023-05-23T00:20:41;99089.69;;;15.51;100.00
2681;BME280;1350;42.134;24.708;2023-05-23T00:23:08;99095.59;;;15.55;100.00
2681;BME280;1350;42.134;24.708;2023-05-23T00:25:38;99083.94;;;15.67;100.00
2681;BME280;1350;42.134;24.708;2023-05-23T00:28:06;99085.28;;;15.61;100.00
2681;BME280;1350;42.134;24.708;2023-05-23T00:30:33;99079.94;;;15.61;100.00
2681;BME280;1350;42.134;24.708;2023-05-23T00:33:00;99085.03;;;15.64;100.00
2681;BME280;1350;42.134;24.708;2023-05-23T00:35:26;99079.66;;;15.75;100.00
2681;BME280;1350;42.134;24.708;2023-05-23T00:37:53;99079.69;;;15.64;100.00
2681;BME280;1350;42.134;24.708;2023-05-23T00:40:21;99077.38;;;15.60;100.00
2681;BME280;1350;42.134;24.708;2023-05-23T00:42:48;99081.75;;;15.61;100.00
2681;BME280;1350;42.134;24.708;2023-05-23T00:45:16;99078.94;;;15.62;100.00
2681;BME280;1350;42.134;24.708;2023-05-23T00:47:43;99076.78;;;15.56;100.00
2681;BME280;1350;42.134;24.708;2023-05-23T00:50:11;99071.59;;;15.44;100.00
2681;BME280;1350;42.134;24.708;2023-05-23T00:52:39;99075.81;;;15.46;100.00
2681;BME280;1350;42.134;24.708;2023-05-23T00:55:07;99078.97;;;15.29;100.00
2681;BME280;1350;42.134;24.708;2023-05-23T00:57:34;99083.19;;;15.32;100.00
2681;BME280;1350;42.134;24.708;2023-05-23T01:00:06;99078.47;;;15.35;100.00
2681;BME280;1350;42.134;24.708;2023-05-23T01:02:39;99074.47;;;15.30;100.00
2681;BME280;1350;42.134;24.708;2023-05-23T01:05:08;99070.56;;;15.34;100.00
2681;BME280;1350;42.134;24.708;2023-05-23T01:07:35;99064.97;;;15.14;100.00
2681;BME280;1350;42.134;24.708;2023-05-23T01:10:02;99062.78;;;15.08;100.00
2681;BME280;1350;42.134;24.708;2023-05-23T01:12:33;99067.78;;;15.13;100.00
2681;BME280;1350;42.134;24.708;2023-05-23T01:15:06;99067.53;;;15.16;100.00
2681;BME280;1350;42.134;24.708;2023-05-23T01:17:40;99061.59;;;15.12;100.00
2681;BME280;1350;42.134;24.708;2023-05-23T01:20:11;99053.97;;;15.19;100.00
2681;BME280;1350;42.134;24.708;2023-05-23T01:22:53;99052.13;;;15.08;100.00
2681;BME280;1350;42.134;24.708;2023-05-23T01:25:38;99055.91;;;15.28;100.00
2681;BME280;1350;42.134;24.708;2023-05-23T01:28:16;99057.34;;;15.32;100.00
2681;BME280;1350;42.134;24.708;2023-05-23T01:30:45;99052.25;;;15.29;100.00
2681;BME280;1350;42.134;24.708;2023-05-23T01:33:15;99055.16;;;15.26;100.00
2681;BME280;1350;42.134;24.708;2023-05-23T01:35:42;99053.34;;;15.04;100.00
2681;BME280;1350;42.134;24.708;2023-05-23T01:38:09;99045.69;;;15.00;100.00
2681;BME280;1350;42.134;24.708;2023-05-23T01:40:36;99044.84;;;15.10;100.00
2681;BME280;1350;42.134;24.708;2023-05-23T01:43:03;99056.97;;;15.14;100.00
2681;BME280;1350;42.134;24.708;2023-05-23T01:45:31;99060.13;;;15.19;100.00
2681;BME280;1350;42.134;24.708;2023-05-23T01:47:59;99054.19;;;14.94;100.00
2681;BME280;1350;42.134;24.708;2023-05-23T01:50:30;99062.81;;;14.86;100.00
2681;BME280;1350;42.134;24.708;2023-05-23T01:52:57;99053.69;;;14.89;100.00
2681;BME280;1350;42.134;24.708;2023-05-23T01:55:25;99053.34;;;14.93;100.00
2681;BME280;1350;42.134;24.708;2023-05-23T01:57:54;99053.31;;;14.82;100.00
2681;BME280;1350;42.134;24.708;2023-05-23T02:00:22;99050.06;;;14.79;100.00
2681;BME280;1350;42.134;24.708;2023-05-23T02:02:50;99039.25;;;14.91;100.00
2681;BME280;1350;42.134;24.708;2023-05-23T02:05:17;99059.16;;;14.98;100.00
2681;BME280;1350;42.134;24.708;2023-05-23T02:07:43;99050.66;;;14.82;100.00
2681;BME280;1350;42.134;24.708;2023-05-23T02:10:10;99049.19;;;14.78;100.00
2681;BME280;1350;42.134;24.708;2023-05-23T02:12:37;99053.06;;;14.63;100.00
2681;BME280;1350;42.134;24.708;2023-05-23T02:15:04;99047.56;;;14.54;100.00
2681;BME280;1350;42.134;24.708;2023-05-23T02:17:31;99049.38;;;14.53;100.00
2681;BME280;1350;42.134;24.708;2023-05-23T02:20:00;99054.47;;;14.56;100.00
2681;BME280;1350;42.134;24.708;2023-05-23T02:22:26;99052.06;;;14.53;100.00
2681;BME280;1350;42.134;24.708;2023-05-23T02:24:53;99044.63;;;14.46;100.00
2681;BME280;1350;42.134;24.708;2023-05-23T02:27:20;99048.44;;;14.54;100.00
2681;BME280;1350;42.134;24.708;2023-05-23T02:29:46;99042.78;;;14.35;100.00
2681;BME280;1350;42.134;24.708;2023-05-23T02:32:13;99048.06;;;14.48;100.00
2681;BME280;1350;42.134;24.708;2023-05-23T02:34:40;99045.09;;;14.40;100.00
2681;BME280;1350;42.134;24.708;2023-05-23T02:37:08;99049.34;;;14.42;100.00
2681;BME280;1350;42.134;24.708;2023-05-23T02:39:35;99048.66;;;14.51;100.00
2681;BME280;1350;42.134;24.708;2023-05-23T02:42:02;99051.78;;;14.45;100.00
2681;BME280;1350;42.134;24.708;2023-05-23T02:44:29;99051.34;;;14.62;100.00
2681;BME280;1350;42.134;24.708;2023-05-23T02:46:55;99052.91;;;14.54;100.00
2681;BME280;1350;42.134;24.708;2023-05-23T02:49:22;99054.13;;;14.61;100.00
2681;BME280;1350;42.134;24.708;2023-05-23T02:51:49;99049.97;;;14.46;100.00
2681;BME280;1350;42.134;24.708;2023-05-23T02:54:17;99041.81;;;14.25;100.00
2681;BME280;1350;42.134;24.708;2023-05-23T02:56:44;99044.75;;;14.21;100.00
2681;BME280;1350;42.134;24.708;2023-05-23T02:59:11;99042.94;;;14.21;100.00
2681;BME280;1350;42.134;24.708;2023-05-23T03:01:37;99040.41;;;14.20;100.00
2681;BME280;1350;42.134;24.708;2023-05-23T03:04:04;99040.88;;;14.14;100.00
2681;BME280;1350;42.134;24.708;2023-05-23T03:06:31;99038.09;;;14.15;100.00
2681;BME280;1350;42.134;24.708;2023-05-23T03:08:58;99036.28;;;14.16;100.00
2681;BME280;1350;42.134;24.708;2023-05-23T03:11:26;99036.16;;;14.17;100.00
2681;BME280;1350;42.134;24.708;2023-05-23T03:13:54;99043.81;;;14.22;100.00
2681;BME280;1350;42.134;24.708;2023-05-23T03:16:21;99045.72;;;14.20;100.00
2681;BME280;1350;42.134;24.708;2023-05-23T03:18:48;99043.50;;;14.26;100.00
2681;BME280;1350;42.134;24.708;2023-05-23T03:21:15;99046.78;;;14.41;100.00
2681;BME280;1350;42.134;24.708;2023-05-23T03:23:42;99048.75;;;14.39;100.00
2681;BME280;1350;42.134;24.708;2023-05-23T03:26:09;99050.78;;;14.35;100.00
2681;BME280;1350;42.134;24.708;2023-05-23T03:28:37;99054.91;;;14.39;100.00
2681;BME280;1350;42.134;24.708;2023-05-23T03:31:04;99054.16;;;14.26;100.00
2681;BME280;1350;42.134;24.708;2023-05-23T03:33:30;99061.28;;;14.49;100.00
2681;BME280;1350;42.134;24.708;2023-05-23T03:35:57;99057.78;;;14.60;100.00
2681;BME280;1350;42.134;24.708;2023-05-23T03:38:24;99062.97;;;14.50;100.00
2681;BME280;1350;42.134;24.708;2023-05-23T03:40:51;99057.53;;;14.63;100.00
2681;BME280;1350;42.134;24.708;2023-05-23T03:43:18;99063.00;;;14.61;100.00
2681;BME280;1350;42.134;24.708;2023-05-23T03:45:46;99061.91;;;14.53;100.00
2681;BME280;1350;42.134;24.708;2023-05-23T03:48:13;99063.97;;;14.60;100.00
2681;BME280;1350;42.134;24.708;2023-05-23T03:50:40;99060.09;;;14.64;100.00
2681;BME280;1350;42.134;24.708;2023-05-23T03:53:06;99060.81;;;14.66;100.00
2681;BME280;1350;42.134;24.708;2023-05-23T03:55:33;99062.63;;;14.66;100.00
2681;BME280;1350;42.134;24.708;2023-05-23T03:58:00;99061.66;;;14.67;100.00
2681;BME280;1350;42.134;24.708;2023-05-23T04:00:29;99061.44;;;14.81;100.00
2681;BME280;1350;42.134;24.708;2023-05-23T04:02:57;99065.00;;;15.03;100.00
2681;BME280;1350;42.134;24.708;2023-05-23T04:05:24;99061.63;;;15.23;100.00
2681;BME280;1350;42.134;24.708;2023-05-23T04:07:51;99070.00;;;15.52;100.00
2681;BME280;1350;42.134;24.708;2023-05-23T04:10:18;99068.63;;;15.69;100.00
2681;BME280;1350;42.134;24.708;2023-05-23T04:12:44;99060.16;;;15.95;100.00
2681;BME280;1350;42.134;24.708;2023-05-23T04:15:12;99072.00;;;16.13;100.00
2681;BME280;1350;42.134;24.708;2023-05-23T04:17:39;99078.59;;;16.41;100.00
2681;BME280;1350;42.134;24.708;2023-05-23T04:20:08;99072.69;;;16.58;100.00
2681;BME280;1350;42.134;24.708;2023-05-23T04:22:35;99078.81;;;16.90;100.00
2681;BME280;1350;42.134;24.708;2023-05-23T04:25:02;99085.03;;;17.11;100.00
2681;BME280;1350;42.134;24.708;2023-05-23T04:27:29;99084.03;;;17.42;100.00
2681;BME280;1350;42.134;24.708;2023-05-23T04:29:56;99094.19;;;17.69;100.00
2681;BME280;1350;42.134;24.708;2023-05-23T04:32:25;99097.66;;;18.09;100.00
2681;BME280;1350;42.134;24.708;2023-05-23T04:34:52;99098.97;;;18.33;100.00
2681;BME280;1350;42.134;24.708;2023-05-23T04:37:20;99107.91;;;18.72;100.00
2681;BME280;1350;42.134;24.708;2023-05-23T04:39:51;99103.88;;;19.05;100.00
2681;BME280;1350;42.134;24.708;2023-05-23T04:42:17;99100.63;;;19.11;100.00
2681;BME280;1350;42.134;24.708;2023-05-23T04:44:48;99099.97;;;19.45;100.00
2681;BME280;1350;42.134;24.708;2023-05-23T04:47:15;99099.94;;;19.82;99.23
2681;BME280;1350;42.134;24.708;2023-05-23T04:49:42;99099.78;;;20.10;96.92
2681;BME280;1350;42.134;24.708;2023-05-23T04:52:09;99108.50;;;20.22;93.34
2681;BME280;1350;42.134;24.708;2023-05-23T04:54:37;99104.81;;;20.41;92.38
2681;BME280;1350;42.134;24.708;2023-05-23T04:57:09;99103.78;;;20.94;90.96
2681;BME280;1350;42.134;24.708;2023-05-23T04:59:36;99109.16;;;21.12;88.90
2681;BME280;1350;42.134;24.708;2023-05-23T05:02:04;99109.09;;;21.04;87.72
2681;BME280;1350;42.134;24.708;2023-05-23T05:04:31;99101.00;;;21.21;87.80
2681;BME280;1350;42.134;24.708;2023-05-23T05:06:58;99107.44;;;21.62;85.49
2681;BME280;1350;42.134;24.708;2023-05-23T05:09:25;99113.53;;;21.98;83.72
2681;BME280;1350;42.134;24.708;2023-05-23T05:11:53;99112.94;;;22.20;82.44
2681;BME280;1350;42.134;24.708;2023-05-23T05:14:20;99114.72;;;22.53;80.17
2681;BME280;1350;42.134;24.708;2023-05-23T05:16:47;99116.94;;;22.65;77.98
2681;BME280;1350;42.134;24.708;2023-05-23T05:19:14;99117.97;;;23.04;76.50
2681;BME280;1350;42.134;24.708;2023-05-23T05:21:41;99120.66;;;23.20;73.48
2681;BME280;1350;42.134;24.708;2023-05-23T05:24:08;99118.47;;;23.16;71.41
2681;BME280;1350;42.134;24.708;2023-05-23T05:26:35;99118.47;;;23.08;71.64
2681;BME280;1350;42.134;24.708;2023-05-23T05:29:03;99121.53;;;23.37;71.72
2681;BME280;1350;42.134;24.708;2023-05-23T05:31:30;99112.41;;;23.06;72.20
2681;BME280;1350;42.134;24.708;2023-05-23T05:33:57;99125.56;;;22.69;73.68
2681;BME280;1350;42.134;24.708;2023-05-23T05:36:24;99123.47;;;22.47;74.95
2681;BME280;1350;42.134;24.708;2023-05-23T05:38:51;99133.09;;;22.41;76.64
2681;BME280;1350;42.134;24.708;2023-05-23T05:41:18;99137.31;;;22.44;77.41
2681;BME280;1350;42.134;24.708;2023-05-23T05:43:44;99126.06;;;22.64;77.55
2681;BME280;1350;42.134;24.708;2023-05-23T05:46:12;99131.28;;;22.58;77.34
2681;BME280;1350;42.134;24.708;2023-05-23T05:48:40;99134.25;;;22.39;77.87
2681;BME280;1350;42.134;24.708;2023-05-23T05:51:07;99124.59;;;22.20;79.81
2681;BME280;1350;42.134;24.708;2023-05-23T05:53:34;99131.47;;;22.07;79.95
2681;BME280;1350;42.134;24.708;2023-05-23T05:56:01;99125.72;;;22.10;82.04
2681;BME280;1350;42.134;24.708;2023-05-23T05:58:27;99128.22;;;21.61;83.73
2681;BME280;1350;42.134;24.708;2023-05-23T06:00:54;99133.50;;;21.71;83.17
2681;BME280;1350;42.134;24.708;2023-05-23T06:03:22;99131.38;;;21.57;81.65
2681;BME280;1350;42.134;24.708;2023-05-23T06:05:50;99125.56;;;21.44;81.95
2681;BME280;1350;42.134;24.708;2023-05-23T06:08:16;99130.00;;;22.20;79.97
2681;BME280;1350;42.134;24.708;2023-05-23T06:10:43;99127.44;;;23.16;76.67
2681;BME280;1350;42.134;24.708;2023-05-23T06:13:10;99126.38;;;23.58;74.25
2681;BME280;1350;42.134;24.708;2023-05-23T06:15:37;99127.75;;;23.38;72.77
2681;BME280;1350;42.134;24.708;2023-05-23T06:18:04;99129.47;;;23.93;71.28
2681;BME280;1350;42.134;24.708;2023-05-23T06:20:32;99121.19;;;24.33;66.33
2681;BME280;1350;42.134;24.708;2023-05-23T06:22:58;99122.16;;;24.94;65.05
2681;BME280;1350;42.134;24.708;2023-05-23T06:25:26;99123.25;;;25.22;63.14
2681;BME280;1350;42.134;24.708;2023-05-23T06:27:53;99123.31;;;25.36;61.71
2681;BME280;1350;42.134;24.708;2023-05-23T06:30:19;99116.91;;;25.29;61.09
2681;BME280;1350;42.134;24.708;2023-05-23T06:32:47;99120.00;;;25.26;60.76
2681;BME280;1350;42.134;24.708;2023-05-23T06:35:14;99124.78;;;24.79;60.55
2681;BME280;1350;42.134;24.708;2023-05-23T06:37:43;99117.44;;;24.34;62.61
2681;BME280;1350;42.134;24.708;2023-05-23T06:40:10;99114.41;;;23.99;63.72
2681;BME280;1350;42.134;24.708;2023-05-23T06:42:37;99119.53;;;23.78;64.42
2681;BME280;1350;42.134;24.708;2023-05-23T06:45:05;99123.31;;;23.61;64.26
2681;BME280;1350;42.134;24.708;2023-05-23T06:47:32;99116.91;;;23.54;65.66
2681;BME280;1350;42.134;24.708;2023-05-23T06:49:59;99112.84;;;23.58;66.65
2681;BME280;1350;42.134;24.708;2023-05-23T06:52:25;99119.25;;;23.65;67.53
2681;BME280;1350;42.134;24.708;2023-05-23T06:54:53;99107.31;;;24.28;66.89
2681;BME280;1350;42.134;24.708;2023-05-23T06:57:20;99101.97;;;24.73;65.20
2681;BME280;1350;42.134;24.708;2023-05-23T06:59:47;99099.41;;;24.95;66.09
2681;BME280;1350;42.134;24.708;2023-05-23T07:02:13;99100.25;;;24.95;65.50
2681;BME280;1350;42.134;24.708;2023-05-23T07:04:40;99097.75;;;25.74;66.80
2681;BME280;1350;42.134;24.708;2023-05-23T07:07:07;99107.88;;;26.45;63.40
2681;BME280;1350;42.134;24.708;2023-05-23T07:09:34;99099.91;;;26.08;59.13
2681;BME280;1350;42.134;24.708;2023-05-23T07:12:02;99107.16;;;26.15;58.79
2681;BME280;1350;42.134;24.708;2023-05-23T07:14:28;99098.44;;;26.41;57.54
2681;BME280;1350;42.134;24.708;2023-05-23T07:16:55;99099.22;;;26.35;57.55
2681;BME280;1350;42.134;24.708;2023-05-23T07:19:22;99104.41;;;27.14;57.67
2681;BME280;1350;42.134;24.708;2023-05-23T07:21:48;99104.44;;;27.35;56.53
2681;BME280;1350;42.134;24.708;2023-05-23T07:24:15;99101.88;;;27.61;57.29
2681;BME280;1350;42.134;24.708;2023-05-23T07:26:42;99100.50;;;28.06;55.69
2681;BME280;1350;42.134;24.708;2023-05-23T07:29:10;99094.31;;;27.91;54.54
2681;BME280;1350;42.134;24.708;2023-05-23T07:31:37;99092.72;;;28.03;53.45
2681;BME280;1350;42.134;24.708;2023-05-23T07:34:03;99082.69;;;27.76;55.29
2681;BME280;1350;42.134;24.708;2023-05-23T07:36:30;99080.84;;;27.83;54.80
2681;BME280;1350;42.134;24.708;2023-05-23T07:38:59;99079.88;;;27.90;52.88
2681;BME280;1350;42.134;24.708;2023-05-23T07:41:26;99085.53;;;28.43;52.31
2681;BME280;1350;42.134;24.708;2023-05-23T07:43:53;99083.91;;;28.68;52.70
2681;BME280;1350;42.134;24.708;2023-05-23T07:46:21;99075.94;;;28.73;53.03
2681;BME280;1350;42.134;24.708;2023-05-23T07:48:48;99081.41;;;28.92;50.51
2681;BME280;1350;42.134;24.708;2023-05-23T07:51:15;99084.94;;;28.60;50.46
2681;BME280;1350;42.134;24.708;2023-05-23T07:53:45;99077.47;;;29.01;51.89
2681;BME280;1350;42.134;24.708;2023-05-23T07:56:12;99081.69;;;29.10;50.62
2681;BME280;1350;42.134;24.708;2023-05-23T07:58:39;99078.91;;;28.97;48.29
2681;BME280;1350;42.134;24.708;2023-05-23T08:01:06;99081.22;;;28.94;47.49
2681;BME280;1350;42.134;24.708;2023-05-23T08:03:34;99081.25;;;29.07;46.69
2681;BME280;1350;42.134;24.708;2023-05-23T08:06:01;99077.81;;;28.59;48.31
2681;BME280;1350;42.134;24.708;2023-05-23T08:08:28;99081.00;;;28.76;47.77
2681;BME280;1350;42.134;24.708;2023-05-23T08:10:55;99076.38;;;28.89;47.86
2681;BME280;1350;42.134;24.708;2023-05-23T08:13:22;99074.13;;;29.06;47.31
2681;BME280;1350;42.134;24.708;2023-05-23T08:15:48;99080.19;;;29.01;47.19
2681;BME280;1350;42.134;24.708;2023-05-23T08:18:15;99075.56;;;29.41;47.83
2681;BME280;1350;42.134;24.708;2023-05-23T08:20:43;99073.66;;;29.61;46.83
2681;BME280;1350;42.134;24.708;2023-05-23T08:23:10;99073.47;;;29.17;46.59
2681;BME280;1350;42.134;24.708;2023-05-23T08:25:38;99078.09;;;29.42;46.99
2681;BME280;1350;42.134;24.708;2023-05-23T08:28:05;99076.81;;;29.58;46.61
2681;BME280;1350;42.134;24.708;2023-05-23T08:30:32;99068.72;;;29.96;46.26
2681;BME280;1350;42.134;24.708;2023-05-23T08:32:59;99068.06;;;30.07;45.03
2681;BME280;1350;42.134;24.708;2023-05-23T08:35:29;99065.78;;;29.97;44.01
2681;BME280;1350;42.134;24.708;2023-05-23T08:38:01;99071.66;;;30.01;43.73
2681;BME280;1350;42.134;24.708;2023-05-23T08:40:29;99070.06;;;29.54;43.47
2681;BME280;1350;42.134;24.708;2023-05-23T08:42:56;99063.75;;;28.62;44.67
2681;BME280;1350;42.134;24.708;2023-05-23T08:45:23;99069.50;;;29.13;44.26
2681;BME280;1350;42.134;24.708;2023-05-23T08:47:50;99068.00;;;29.36;44.80
2681;BME280;1350;42.134;24.708;2023-05-23T08:50:17;99071.78;;;29.09;42.51
2681;BME280;1350;42.134;24.708;2023-05-23T08:52:51;99066.31;;;29.03;42.43
2681;BME280;1350;42.134;24.708;2023-05-23T08:55:23;99062.75;;;28.96;43.63
2681;BME280;1350;42.134;24.708;2023-05-23T08:57:51;99056.22;;;29.29;43.57
2681;BME280;1350;42.134;24.708;2023-05-23T09:00:18;99066.34;;;29.29;43.13
2681;BME280;1350;42.134;24.708;2023-05-23T09:02:45;99063.78;;;29.34;43.54
2681;BME280;1350;42.134;24.708;2023-05-23T09:05:13;99065.44;;;29.74;43.45
2681;BME280;1350;42.134;24.708;2023-05-23T09:07:40;99063.16;;;29.51;41.95
2681;BME280;1350;42.134;24.708;2023-05-23T09:10:08;99064.56;;;29.80;40.08
2681;BME280;1350;42.134;24.708;2023-05-23T09:12:37;99057.88;;;30.33;41.18
2681;BME280;1350;42.134;24.708;2023-05-23T09:15:04;99059.41;;;30.10;41.81
2681;BME280;1350;42.134;24.708;2023-05-23T09:17:32;99065.28;;;30.57;40.81
2681;BME280;1350;42.134;24.708;2023-05-23T09:19:59;99061.44;;;30.65;41.78
2681;BME280;1350;42.134;24.708;2023-05-23T09:22:26;99061.03;;;30.99;40.18
2681;BME280;1350;42.134;24.708;2023-05-23T09:24:54;99055.09;;;30.77;39.92
2681;BME280;1350;42.134;24.708;2023-05-23T09:27:21;99063.72;;;30.74;40.04
2681;BME280;1350;42.134;24.708;2023-05-23T09:29:49;99057.50;;;30.61;40.57
2681;BME280;1350;42.134;24.708;2023-05-23T09:32:17;99062.28;;;30.34;39.31
2681;BME280;1350;42.134;24.708;2023-05-23T09:34:54;99057.13;;;30.00;39.20
2681;BME280;1350;42.134;24.708;2023-05-23T09:37:28;99053.66;;;29.54;40.77
2681;BME280;1350;42.134;24.708;2023-05-23T09:39:56;99050.59;;;29.24;40.42
2681;BME280;1350;42.134;24.708;2023-05-23T09:42:23;99049.06;;;28.89;38.97
2681;BME280;1350;42.134;24.708;2023-05-23T09:44:52;99051.56;;;27.91;40.70
2681;BME280;1350;42.134;24.708;2023-05-23T09:47:19;99052.09;;;27.46;40.74
2681;BME280;1350;42.134;24.708;2023-05-23T09:49:46;99048.50;;;27.73;41.09
2681;BME280;1350;42.134;24.708;2023-05-23T09:52:13;99049.97;;;28.23;40.21
2681;BME280;1350;42.134;24.708;2023-05-23T09:54:40;99046.22;;;27.83;41.61
2681;BME280;1350;42.134;24.708;2023-05-23T09:57:09;99049.16;;;27.20;43.49
2681;BME280;1350;42.134;24.708;2023-05-23T09:59:38;99043.66;;;27.07;41.83
2681;BME280;1350;42.134;24.708;2023-05-23T10:02:10;99041.66;;;27.22;41.91
2681;BME280;1350;42.134;24.708;2023-05-23T10:04:38;99044.97;;;27.45;42.39
2681;BME280;1350;42.134;24.708;2023-05-23T10:07:13;99046.38;;;27.69;42.86
2681;BME280;1350;42.134;24.708;2023-05-23T10:09:42;99039.81;;;27.57;44.06
2681;BME280;1350;42.134;24.708;2023-05-23T10:15:12;99036.75;;;27.32;42.75
2681;BME280;1350;42.134;24.708;2023-05-23T10:17:51;99034.03;;;27.11;43.24
2681;BME280;1350;42.134;24.708;2023-05-23T10:20:21;99036.88;;;26.97;44.12
2681;BME280;1350;42.134;24.708;2023-05-23T10:22:50;99036.28;;;27.01;44.42
2681;BME280;1350;42.134;24.708;2023-05-23T10:25:18;99037.16;;;27.08;43.96
2681;BME280;1350;42.134;24.708;2023-05-23T10:27:47;99040.00;;;26.16;43.99
2681;BME280;1350;42.134;24.708;2023-05-23T10:30:15;99034.84;;;26.42;44.59
2681;BME280;1350;42.134;24.708;2023-05-23T10:32:43;99018.09;;;26.60;44.45
2681;BME280;1350;42.134;24.708;2023-05-23T10:35:16;99031.97;;;26.65;45.51
2681;BME280;1350;42.134;24.708;2023-05-23T10:37:51;99031.75;;;26.87;44.87
2681;BME280;1350;42.134;24.708;2023-05-23T10:40:30;99021.31;;;27.46;43.51
2681;BME280;1350;42.134;24.708;2023-05-23T10:43:03;99017.03;;;27.64;43.44
2681;BME280;1350;42.134;24.708;2023-05-23T10:45:39;99012.81;;;27.68;44.00
2681;BME280;1350;42.134;24.708;2023-05-23T10:48:19;99023.13;;;27.39;43.74
2681;BME280;1350;42.134;24.708;2023-05-23T10:51:01;99021.72;;;27.43;43.16
2681;BME280;1350;42.134;24.708;2023-05-23T10:53:29;99016.59;;;27.67;43.67
2681;BME280;1350;42.134;24.708;2023-05-23T10:55:56;99017.75;;;27.86;43.76
2681;BME280;1350;42.134;24.708;2023-05-23T10:58:23;99025.84;;;28.14;42.46
2681;BME280;1350;42.134;24.708;2023-05-23T11:00:50;99017.66;;;28.14;42.83
2681;BME280;1350;42.134;24.708;2023-05-23T11:03:29;99019.13;;;28.16;43.09
2681;BME280;1350;42.134;24.708;2023-05-23T11:05:58;99017.34;;;28.49;41.55
2681;BME280;1350;42.134;24.708;2023-05-23T11:08:25;99015.47;;;28.76;41.29
2681;BME280;1350;42.134;24.708;2023-05-23T11:10:58;99014.66;;;28.69;41.74
2681;BME280;1350;42.134;24.708;2023-05-23T11:13:55;99016.75;;;28.99;41.15
2681;BME280;1350;42.134;24.708;2023-05-23T11:16:26;99012.94;;;29.39;41.55
2681;BME280;1350;42.134;24.708;2023-05-23T11:19:22;99015.69;;;29.33;40.88
2681;BME280;1350;42.134;24.708;2023-05-23T11:21:53;99018.19;;;29.41;41.57
2681;BME280;1350;42.134;24.708;2023-05-23T11:24:20;99016.84;;;29.76;42.18
2681;BME280;1350;42.134;24.708;2023-05-23T11:26:51;99016.03;;;29.63;41.69
2681;BME280;1350;42.134;24.708;2023-05-23T11:29:18;99017.06;;;28.25;42.35
2681;BME280;1350;42.134;24.708;2023-05-23T11:31:45;99013.53;;;28.44;44.36
2681;BME280;1350;42.134;24.708;2023-05-23T11:34:13;99014.84;;;28.87;42.75
2681;BME280;1350;42.134;24.708;2023-05-23T11:36:40;99012.81;;;28.16;43.45
2681;BME280;1350;42.134;24.708;2023-05-23T11:39:07;99011.91;;;27.89;44.15
2681;BME280;1350;42.134;24.708;2023-05-23T11:41:34;99016.38;;;28.10;43.75
2681;BME280;1350;42.134;24.708;2023-05-23T11:44:10;99009.94;;;27.76;44.69
2681;BME280;1350;42.134;24.708;2023-05-23T11:46:37;99009.91;;;27.70;45.31
2681;BME280;1350;42.134;24.708;2023-05-23T11:49:09;99018.34;;;27.13;45.27
2681;BME280;1350;42.134;24.708;2023-05-23T11:51:37;99015.09;;;26.55;45.33
2681;BME280;1350;42.134;24.708;2023-05-23T11:54:04;99008.72;;;26.05;46.18
2681;BME280;1350;42.134;24.708;2023-05-23T11:56:38;99016.19;;;26.18;45.98
2681;BME280;1350;42.134;24.708;2023-05-23T11:59:05;99011.50;;;26.48;45.00
2681;BME280;1350;42.134;24.708;2023-05-23T12:01:32;99011.81;;;26.38;44.69
2681;BME280;1350;42.134;24.708;2023-05-23T12:03:59;99024.31;;;26.54;44.84
2681;BME280;1350;42.134;24.708;2023-05-23T12:06:25;99021.25;;;25.42;52.32
2681;BME280;1350;42.134;24.708;2023-05-23T12:08:53;99029.66;;;24.80;54.66
2681;BME280;1350;42.134;24.708;2023-05-23T12:11:20;99016.69;;;24.31;56.58
2681;BME280;1350;42.134;24.708;2023-05-23T12:13:48;99025.47;;;24.33;57.34
2681;BME280;1350;42.134;24.708;2023-05-23T12:16:17;99021.78;;;24.48;57.34
2681;BME280;1350;42.134;24.708;2023-05-23T12:18:44;99029.34;;;24.38;56.95
2681;BME280;1350;42.134;24.708;2023-05-23T12:21:11;99008.88;;;24.73;56.52
2681;BME280;1350;42.134;24.708;2023-05-23T12:23:38;99022.25;;;24.74;56.77
2681;BME280;1350;42.134;24.708;2023-05-23T12:26:06;98997.44;;;25.15;56.12
2681;BME280;1350;42.134;24.708;2023-05-23T12:28:35;99011.81;;;25.38;55.26
2681;BME280;1350;42.134;24.708;2023-05-23T12:31:08;98998.88;;;25.40;54.73
2681;BME280;1350;42.134;24.708;2023-05-23T12:33:37;98996.56;;;25.37;54.68
2681;BME280;1350;42.134;24.708;2023-05-23T12:36:05;98992.19;;;25.71;54.11
2681;BME280;1350;42.134;24.708;2023-05-23T12:38:32;99005.06;;;25.63;52.69
2681;BME280;1350;42.134;24.708;2023-05-23T12:41:10;98990.44;;;25.64;53.80
2681;BME280;1350;42.134;24.708;2023-05-23T12:43:38;98986.97;;;25.91;52.74
2681;BME280;1350;42.134;24.708;2023-05-23T12:46:05;98977.88;;;25.63;53.25
2681;BME280;1350;42.134;24.708;2023-05-23T12:48:32;98992.84;;;25.73;52.54
2681;BME280;1350;42.134;24.708;2023-05-23T12:50:58;99001.13;;;25.22;53.06
2681;BME280;1350;42.134;24.708;2023-05-23T12:53:27;98976.97;;;25.41;54.19
2681;BME280;1350;42.134;24.708;2023-05-23T12:55:54;98963.31;;;25.49;54.17
2681;BME280;1350;42.134;24.708;2023-05-23T12:58:22;98969.47;;;25.93;53.46
2681;BME280;1350;42.134;24.708;2023-05-23T13:00:49;98961.13;;;25.95;51.91
2681;BME280;1350;42.134;24.708;2023-05-23T13:03:16;98955.22;;;25.91;52.51
2681;BME280;1350;42.134;24.708;2023-05-23T13:05:43;98954.19;;;26.07;51.17
2681;BME280;1350;42.134;24.708;2023-05-23T13:08:10;98963.97;;;25.87;51.08
2681;BME280;1350;42.134;24.708;2023-05-23T13:10:37;98965.78;;;25.80;51.43
2681;BME280;1350;42.134;24.708;2023-05-23T13:13:04;98957.28;;;25.89;52.11
2681;BME280;1350;42.134;24.708;2023-05-23T13:15:35;98959.09;;;25.82;51.65